LHDC Airport Information

Runway Information
Runway 05L Length 8087 ft width 230 ft
Elevation 0 ft Threshold 0 ft Heading 48
Runway 23R Length 8087 ft Width 230 ft
Elevation 0 ft Threshold 0 ft Heading 228
Runway 05R Length 8196 ft width 131 ft
Elevation 355 ft Threshold 0 ft Heading 48
Runway 23L Length 8196 ft Width 131 ft
Elevation 359 ft Threshold 979 ft Heading 228
Airport Frequencies
Type AFIS Name INFO Frequency 125.9 MHZ
Type INFO Name BUDAPEST I Frequency 133.3 MHZ
Airport Navaids
Type NDB Name Debrecen Frequency 326 KHZ
Type NDB Name Debrecen Frequency 295 KHZ
Airport Weather Information & NOTAM
ADDS - METARS form results

(1108 UTC 23 May 2019)
Data provider http://aviationweather.gov/metar/data/
 
METAR text: LHDC 231045Z AUTO 23008KT 150V280 9999 FEW018 SCT030 BKN048 17/12 Q1011 NOSIG
Conditions at: LHDC (DEBRECEN AIRPORT, HU) observed 1045 UTC 23 May 2019
Temperature: 17.0°C (63°F)
Dewpoint: 12.0°C (54°F) [RH = 72%]
Pressure (altimeter): 29.85 inches Hg (1011.0 mb)
Winds: from the SW (230 degrees) at 9 MPH (8 knots; 4.1 m/s)
Visibility: 6 or more miles (10+ km)
Ceiling: 4800 feet AGL
Clouds: few clouds at 1800 feet AGL
scattered clouds at 3000 feet AGL
broken clouds at 4800 feet AGL
Weather: no significant weather observed at this time

METAR text: LHDC 231015Z AUTO 24007KT 200V270 9999 OVC024 17/12 Q1011 NOSIG
Conditions at: LHDC (DEBRECEN AIRPORT, HU) observed 1015 UTC 23 May 2019
Temperature: 17.0°C (63°F)
Dewpoint: 12.0°C (54°F) [RH = 72%]
Pressure (altimeter): 29.85 inches Hg (1011.0 mb)
Winds: from the WSW (240 degrees) at 8 MPH (7 knots; 3.6 m/s)
Visibility: 6 or more miles (10+ km)
Ceiling: 2400 feet AGL
Clouds: overcast cloud deck at 2400 feet AGL
Weather: no significant weather observed at this time

Forecast for: LHDC (DEBRECEN AIRPORT, HU)
Text: TAF LHDC 230815Z 2309/2318 24010KT 9999 SCT025 BKN060
Forecast period: 0900 to 1800 UTC 23 May 2019
Forecast type: FROM: standard forecast or significant change
Winds: from the WSW (240 degrees) at 12 MPH (10 knots; 5.1 m/s)
Visibility: 6 or more miles 10+ km)
Ceiling: 6000 feet AGL
Clouds: scattered clouds at 2500 feet AGL
broken clouds at 6000 feet AGL
Weather: no significant weather forecast for this period
Text: TEMPO 2309/2318 -RA -SHRA BKN010 OVC030
Forecast period: 0900 to 1800 UTC 23 May 2019
Forecast type: TEMPORARY: The following changes expected for less than half the time period
Visibility: missing
Ceiling: 1000 feet AGL
Clouds: broken clouds at 1000 feet AGL
overcast cloud deck at 3000 feet AGL
Weather: -RA -SHRA  (light rain, light rain showers)
Text: PROB30
Forecast period: 1100 to 1500 UTC 23 May 2019
Forecast type: TEMPORARY: The following changes expected for less than half the time period
Winds: variable direction winds at 14 MPH (12 knots; 6.2 m/s)
Visibility: 3 miles (5 km)
Ceiling: 1500 feet AGL
Clouds: broken clouds at 1500 feet AGL
Weather: SHRA TSRA  (rain showers, rain associated with thunderstorm(s))